createdAt,value
2022-12-01T00:01:38.787Z,16.70
2022-12-01T00:04:07.307Z,14.75
2022-12-01T00:06:35.817Z,16.15
2022-12-01T00:09:23.016Z,16.17
2022-12-01T00:11:51.468Z,16.23
2022-12-01T00:14:19.951Z,18.23
2022-12-01T00:16:48.481Z,15.27
2022-12-01T00:19:17.740Z,14.98
2022-12-01T00:21:47.280Z,17.95
2022-12-01T00:24:17.045Z,16.80
2022-12-01T00:26:45.503Z,15.80
2022-12-01T00:29:14.024Z,15.75
2022-12-01T00:31:42.609Z,11.70
2022-12-01T00:34:22.581Z,17.63
2022-12-01T00:36:51.418Z,22.58
2022-12-01T00:39:21.408Z,19.25
2022-12-01T00:41:49.850Z,17.98
2022-12-01T00:44:18.306Z,18.10
2022-12-01T00:46:46.762Z,16.80
2022-12-01T00:49:15.690Z,19.08
2022-12-01T00:51:44.107Z,16.35
2022-12-01T00:54:12.551Z,17.08
2022-12-01T00:56:42.286Z,19.90
2022-12-01T00:59:11.493Z,16.83
2022-12-01T01:01:40.354Z,16.08
2022-12-01T01:04:09.095Z,17.77
2022-12-01T01:06:38.296Z,17.63
2022-12-01T01:09:06.760Z,20.33
2022-12-01T01:11:35.205Z,17.00
2022-12-01T01:14:05.398Z,15.85
2022-12-01T01:19:03.126Z,17.08
2022-12-01T01:21:31.653Z,16.48
2022-12-01T01:24:00.168Z,17.20
2022-12-01T01:26:31.555Z,13.57
2022-12-01T01:29:02.035Z,19.75
2022-12-01T01:31:32.270Z,17.55
2022-12-01T01:36:29.240Z,18.17
2022-12-01T01:38:57.682Z,16.25
2022-12-01T01:41:26.731Z,15.35
2022-12-01T01:43:57.339Z,17.23
2022-12-01T01:46:27.753Z,19.38
2022-12-01T01:51:32.851Z,15.77
2022-12-01T01:54:05.165Z,18.73
2022-12-01T01:56:35.551Z,17.02
2022-12-01T01:59:04.820Z,20.88
2022-12-01T02:01:33.414Z,14.38
2022-12-01T02:04:04.331Z,18.33
2022-12-01T02:06:32.916Z,19.15
2022-12-01T02:09:01.444Z,17.08
2022-12-01T02:11:57.919Z,21.15
2022-12-01T02:14:45.879Z,19.10
2022-12-01T02:17:28.084Z,17.27
2022-12-01T02:20:32.445Z,16.20
2022-12-01T02:23:22.975Z,17.83
2022-12-01T02:26:04.567Z,22.25
2022-12-01T02:28:57.321Z,21.30
2022-12-01T02:31:35.574Z,19.23
2022-12-01T02:34:11.155Z,17.80
2022-12-01T02:36:47.777Z,15.27
2022-12-01T02:39:23.067Z,18.88
2022-12-01T02:41:55.386Z,20.15
2022-12-01T02:44:28.283Z,16.73
2022-12-01T02:47:01.656Z,19.77
2022-12-01T02:49:35.850Z,19.10
2022-12-01T02:52:07.222Z,19.20
2022-12-01T02:54:36.967Z,19.45
2022-12-01T02:57:05.416Z,18.75
2022-12-01T02:59:33.999Z,20.90
2022-12-01T03:02:15.529Z,18.50
2022-12-01T03:04:56.210Z,18.17
2022-12-01T03:07:43.668Z,22.33
2022-12-01T03:10:21.087Z,21.83
2022-12-01T03:13:00.457Z,17.00
2022-12-01T03:15:36.818Z,18.30
2022-12-01T03:20:48.074Z,18.35
2022-12-01T03:23:20.931Z,21.70
2022-12-01T03:25:52.834Z,20.58
2022-12-01T03:28:29.751Z,21.13
2022-12-01T03:31:03.210Z,19.70
2022-12-01T03:33:37.139Z,17.65
2022-12-01T03:36:15.024Z,17.85
2022-12-01T03:38:47.702Z,19.60
2022-12-01T03:41:20.687Z,22.67
2022-12-01T03:43:59.443Z,20.73
2022-12-01T03:46:38.003Z,18.98
2022-12-01T03:49:08.870Z,18.60
2022-12-01T03:51:43.916Z,18.95
2022-12-01T03:54:17.688Z,18.95
2022-12-01T03:56:49.887Z,17.92
2022-12-01T03:59:21.932Z,17.88
2022-12-01T04:01:50.875Z,19.48
2022-12-01T04:04:20.953Z,17.88
2022-12-01T04:06:51.297Z,16.95
2022-12-01T04:09:20.023Z,18.10
2022-12-01T04:12:05.942Z,18.58
2022-12-01T04:14:34.429Z,18.55
2022-12-01T04:17:02.879Z,20.92
2022-12-01T04:19:32.980Z,18.80
2022-12-01T04:22:01.539Z,19.20
2022-12-01T04:24:30.019Z,17.77
2022-12-01T04:26:58.490Z,19.83
2022-12-01T04:29:26.955Z,20.13
2022-12-01T04:31:55.440Z,20.33
2022-12-01T04:34:24.032Z,20.58
2022-12-01T04:36:53.961Z,18.60
2022-12-01T04:39:22.460Z,19.73
2022-12-01T04:41:51.085Z,22.20
2022-12-01T04:44:19.571Z,19.92
2022-12-01T04:46:48.188Z,20.38
2022-12-01T04:49:16.656Z,21.52
2022-12-01T04:51:45.127Z,19.13
2022-12-01T04:54:15.020Z,20.98
2022-12-01T04:56:43.551Z,19.88
2022-12-01T04:59:12.388Z,21.83
2022-12-01T05:01:41.141Z,20.83
2022-12-01T05:04:12.879Z,21.17
2022-12-01T05:06:41.978Z,21.38
2022-12-01T05:09:17.581Z,19.92
2022-12-01T05:11:46.551Z,21.65
2022-12-01T05:14:15.000Z,19.13
2022-12-01T05:16:43.749Z,20.85
2022-12-01T05:19:29.826Z,21.60
2022-12-01T05:21:58.283Z,25.98
2022-12-01T05:24:28.215Z,19.90
2022-12-01T05:26:56.755Z,19.95
2022-12-01T05:29:25.284Z,27.27
2022-12-01T05:31:53.845Z,22.30
2022-12-01T05:34:22.424Z,24.55
2022-12-01T05:36:50.931Z,21.15
2022-12-01T05:39:19.415Z,24.20
2022-12-01T05:41:49.280Z,23.88
2022-12-01T05:44:17.958Z,25.42
2022-12-01T05:46:46.410Z,22.88
2022-12-01T05:49:14.990Z,22.92
2022-12-01T05:51:43.839Z,25.85
2022-12-01T05:54:12.312Z,21.88
2022-12-01T05:56:40.831Z,22.92
2022-12-01T05:59:10.630Z,22.15
2022-12-01T06:01:39.302Z,20.90
2022-12-01T06:04:08.722Z,18.52
2022-12-01T06:06:37.222Z,24.52
2022-12-01T06:09:05.739Z,21.40
2022-12-01T06:11:34.168Z,22.45
2022-12-01T06:14:02.636Z,21.58
2022-12-01T06:16:32.515Z,19.75
2022-12-01T06:19:01.042Z,22.65
2022-12-01T06:21:29.523Z,27.38
2022-12-01T06:23:58.103Z,23.58
2022-12-01T06:26:26.600Z,20.55
2022-12-01T06:28:55.084Z,25.55
2022-12-01T06:31:23.627Z,21.55
2022-12-01T06:33:53.505Z,26.10
2022-12-01T06:36:21.978Z,27.20
2022-12-01T06:38:50.420Z,19.48
2022-12-01T06:41:18.885Z,24.90
2022-12-01T06:43:47.340Z,22.35
2022-12-01T06:46:16.648Z,24.98
2022-12-01T06:48:48.439Z,23.33
2022-12-01T06:51:18.475Z,21.23
2022-12-01T06:53:47.422Z,23.70
2022-12-01T06:56:17.748Z,20.23
2022-12-01T06:58:46.926Z,21.55
2022-12-01T07:01:16.047Z,24.30
2022-12-01T07:03:47.961Z,24.00
2022-12-01T07:06:18.418Z,21.60
2022-12-01T07:08:46.915Z,22.15
2022-12-01T07:11:16.728Z,27.73
2022-12-01T07:13:46.272Z,27.52
2022-12-01T07:16:14.754Z,19.85
2022-12-01T07:18:44.541Z,25.88
2022-12-01T07:21:14.789Z,22.42
2022-12-01T07:26:14.875Z,17.73
2022-12-01T07:28:44.178Z,28.70
2022-12-01T07:31:14.926Z,25.33
2022-12-01T07:33:43.977Z,22.58
2022-12-01T07:36:13.982Z,21.48
2022-12-01T07:38:44.339Z,22.02
2022-12-01T07:41:14.974Z,25.88
2022-12-01T07:43:43.926Z,27.58
2022-12-01T07:46:20.352Z,21.17
2022-12-01T07:48:50.625Z,24.63
2022-12-01T07:51:19.567Z,21.73
2022-12-01T07:53:51.179Z,21.55
2022-12-01T07:56:20.459Z,23.90
2022-12-01T07:58:49.012Z,27.92
2022-12-01T08:01:19.382Z,22.75
2022-12-01T08:03:49.645Z,27.00
2022-12-01T08:06:19.464Z,26.40
2022-12-01T08:08:49.964Z,24.17
2022-12-01T08:11:20.479Z,19.65
2022-12-01T08:13:49.662Z,22.73
2022-12-01T08:16:21.647Z,19.35
2022-12-01T08:18:50.938Z,24.75
2022-12-01T08:21:21.956Z,26.02
2022-12-01T08:23:54.506Z,23.90
2022-12-01T08:26:24.044Z,23.13
2022-12-01T08:28:52.820Z,21.58
2022-12-01T08:31:27.626Z,22.52
2022-12-01T08:33:56.843Z,27.52
2022-12-01T08:36:26.610Z,25.35
2022-12-01T08:38:56.948Z,20.23
2022-12-01T08:41:26.117Z,20.30
2022-12-01T08:43:59.171Z,20.75
2022-12-01T08:46:29.473Z,22.27
2022-12-01T08:48:58.370Z,23.50
2022-12-01T08:51:27.312Z,22.77
2022-12-01T08:53:58.683Z,21.10
2022-12-01T08:56:29.781Z,21.38
2022-12-01T08:58:58.547Z,23.55
2022-12-01T09:01:27.188Z,20.73
2022-12-01T09:04:06.716Z,22.98
2022-12-01T09:06:39.393Z,21.52
2022-12-01T09:09:10.519Z,23.50
2022-12-01T09:11:39.455Z,20.38
2022-12-01T09:14:08.374Z,26.65
2022-12-01T09:16:37.554Z,23.63
2022-12-01T09:19:06.120Z,22.50
2022-12-01T09:21:37.355Z,27.30
2022-12-01T09:24:07.382Z,23.08
2022-12-01T09:26:37.319Z,20.63
2022-12-01T09:29:07.783Z,22.33
2022-12-01T09:31:36.629Z,23.42
2022-12-01T09:34:07.511Z,19.58
2022-12-01T09:36:37.155Z,23.98
2022-12-01T09:39:06.456Z,17.88
2022-12-01T09:41:38.973Z,20.65
2022-12-01T09:44:16.583Z,24.58
2022-12-01T09:46:50.030Z,22.73
2022-12-01T09:49:23.942Z,22.00
2022-12-01T09:51:54.574Z,23.70
2022-12-01T09:54:23.138Z,24.80
2022-12-01T09:56:55.430Z,21.90
2022-12-01T09:59:27.630Z,19.20
2022-12-01T10:02:00.266Z,20.15
2022-12-01T10:04:35.960Z,20.40
2022-12-01T10:07:07.552Z,21.05
2022-12-01T10:09:42.928Z,21.42
2022-12-01T10:12:17.593Z,19.17
2022-12-01T10:14:47.734Z,23.80
2022-12-01T10:17:25.284Z,19.48
2022-12-01T10:19:58.064Z,21.00
2022-12-01T10:22:50.524Z,23.15
2022-12-01T10:25:22.933Z,21.00
2022-12-01T10:28:07.727Z,22.30
2022-12-01T10:30:41.094Z,22.80
2022-12-01T10:33:19.432Z,22.23
2022-12-01T10:35:47.939Z,23.13
2022-12-01T10:38:27.295Z,20.33
2022-12-01T10:40:59.724Z,22.45
2022-12-01T10:43:36.919Z,19.63
2022-12-01T10:46:16.579Z,19.58
2022-12-01T10:48:54.792Z,23.08
2022-12-01T10:51:23.666Z,21.27
2022-12-01T10:53:59.364Z,21.55
2022-12-01T10:56:28.033Z,21.75
2022-12-01T10:59:01.046Z,24.20
2022-12-01T11:01:35.454Z,21.90
2022-12-01T11:04:07.500Z,21.35
2022-12-01T11:06:36.931Z,25.05
2022-12-01T11:09:07.828Z,25.33
2022-12-01T11:11:38.765Z,18.98
2022-12-01T11:14:19.655Z,22.63
2022-12-01T11:16:50.458Z,22.00
2022-12-01T11:19:27.199Z,21.65
2022-12-01T11:21:58.218Z,20.85
2022-12-01T11:24:30.821Z,22.25
2022-12-01T11:27:01.023Z,21.92
2022-12-01T11:32:02.714Z,22.13
2022-12-01T11:34:34.500Z,20.52
2022-12-01T11:37:07.359Z,22.83
2022-12-01T11:39:38.656Z,20.55
2022-12-01T11:42:22.430Z,21.45
2022-12-01T11:44:54.902Z,25.60
2022-12-01T11:47:25.907Z,22.25
2022-12-01T11:49:57.536Z,20.75
2022-12-01T11:52:30.165Z,22.95
2022-12-01T11:55:06.924Z,21.75
2022-12-01T11:57:44.268Z,20.63
2022-12-01T12:00:17.245Z,20.27
2022-12-01T12:02:59.401Z,18.80
2022-12-01T12:07:14.583Z,22.35
2022-12-01T12:09:56.099Z,20.77
2022-12-01T12:12:36.159Z,22.30
2022-12-01T12:15:17.212Z,18.70
2022-12-01T12:17:57.492Z,20.45
2022-12-01T12:20:36.704Z,19.83
2022-12-01T12:23:27.068Z,22.73
2022-12-01T12:26:04.973Z,21.27
2022-12-01T12:28:51.778Z,21.73
2022-12-01T12:31:30.476Z,22.58
2022-12-01T12:34:22.926Z,20.15
2022-12-01T12:37:02.771Z,20.08
2022-12-01T12:39:52.124Z,15.73
2022-12-01T12:42:28.301Z,20.73
2022-12-01T12:45:03.282Z,18.95
2022-12-01T12:47:50.145Z,20.80
2022-12-01T12:50:28.348Z,19.88
2022-12-01T12:53:01.916Z,19.80
2022-12-01T12:55:40.796Z,21.55
2022-12-01T12:58:15.573Z,19.17
2022-12-01T13:00:47.525Z,20.25
2022-12-01T13:03:21.880Z,18.85
2022-12-01T13:05:55.220Z,22.08
2022-12-01T13:08:30.493Z,20.90
2022-12-01T13:11:07.672Z,19.17
2022-12-01T13:13:41.418Z,17.88
2022-12-01T13:16:15.103Z,17.63
2022-12-01T13:18:48.713Z,23.20
2022-12-01T13:21:20.164Z,19.23
2022-12-01T13:23:51.794Z,17.98
2022-12-01T13:26:23.161Z,19.35
2022-12-01T13:28:54.635Z,18.38
2022-12-01T13:31:23.710Z,18.38
2022-12-01T13:33:59.768Z,18.25
2022-12-01T13:39:21.547Z,17.92
2022-12-01T13:42:04.060Z,16.70
2022-12-01T13:47:06.273Z,19.38
2022-12-01T13:49:42.451Z,17.02
2022-12-01T13:52:28.516Z,22.45
2022-12-01T13:55:25.509Z,16.95
2022-12-01T13:58:23.720Z,21.02
2022-12-01T14:00:52.681Z,16.38
2022-12-01T14:03:39.771Z,16.52
2022-12-01T14:06:22.310Z,19.70
2022-12-01T14:11:23.582Z,19.35
2022-12-01T14:13:58.353Z,18.83
2022-12-01T14:16:46.120Z,16.73
2022-12-01T14:19:29.275Z,17.75
2022-12-01T14:21:58.498Z,20.95
2022-12-01T14:24:32.935Z,22.70
2022-12-01T14:27:01.516Z,16.13
2022-12-01T14:29:34.209Z,19.65
2022-12-01T14:32:26.855Z,16.63
2022-12-01T14:35:04.847Z,16.02
2022-12-01T14:37:42.380Z,18.48
2022-12-01T14:40:32.372Z,20.63
2022-12-01T14:43:19.693Z,18.30
2022-12-01T14:45:58.202Z,17.25
2022-12-01T14:48:34.153Z,19.20
2022-12-01T14:51:13.188Z,18.17
2022-12-01T14:53:45.507Z,18.77
2022-12-01T14:56:17.803Z,19.20
2022-12-01T14:58:54.544Z,20.85
2022-12-01T15:01:26.891Z,19.60
2022-12-01T15:03:59.077Z,18.67
2022-12-01T15:06:29.964Z,18.38
2022-12-01T15:12:07.392Z,22.65
2022-12-01T15:14:38.334Z,17.77
2022-12-01T15:17:09.095Z,18.77
2022-12-01T15:19:39.488Z,19.45
2022-12-01T15:22:16.386Z,16.58
2022-12-01T15:24:45.841Z,17.95
2022-12-01T15:27:27.202Z,18.58
2022-12-01T15:29:58.238Z,15.90
2022-12-01T15:32:28.224Z,19.60
2022-12-01T15:35:01.637Z,21.95
2022-12-01T15:37:40.435Z,18.95
2022-12-01T15:43:04.895Z,19.02
2022-12-01T15:45:44.445Z,18.52
2022-12-01T15:48:18.831Z,17.02
2022-12-01T15:50:59.689Z,18.20
2022-12-01T15:53:32.865Z,18.70
2022-12-01T15:56:04.244Z,15.15
2022-12-01T15:58:36.494Z,17.98
2022-12-01T16:01:09.707Z,20.13
2022-12-01T16:03:53.499Z,20.80
2022-12-01T16:06:27.903Z,20.95
2022-12-01T16:08:59.246Z,21.23
2022-12-01T16:11:28.577Z,18.58
2022-12-01T16:14:01.027Z,20.52
2022-12-01T16:16:42.726Z,19.05
2022-12-01T16:19:31.563Z,20.52
2022-12-01T16:22:05.336Z,16.52
2022-12-01T16:24:36.722Z,19.80
2022-12-01T16:27:07.564Z,17.83
2022-12-01T16:29:51.915Z,22.45
2022-12-01T16:32:23.772Z,24.30
2022-12-01T16:34:54.403Z,18.73
2022-12-01T16:37:23.727Z,19.50
2022-12-01T16:39:52.238Z,19.75
2022-12-01T16:42:22.316Z,19.90
2022-12-01T16:44:51.678Z,22.73
2022-12-01T16:47:23.041Z,21.48
2022-12-01T16:49:52.319Z,22.10
2022-12-01T16:55:36.112Z,21.92
2022-12-01T16:58:04.786Z,23.35
2022-12-01T17:00:33.941Z,20.55
2022-12-01T17:03:03.310Z,22.27
2022-12-01T17:05:31.919Z,24.48
2022-12-01T17:08:02.047Z,23.17
2022-12-01T17:12:58.919Z,19.30
2022-12-01T17:15:27.557Z,21.65
2022-12-01T17:17:56.017Z,19.35
2022-12-01T17:20:24.661Z,20.75
2022-12-01T17:22:53.441Z,19.50
2022-12-01T17:25:23.309Z,20.35
2022-12-01T17:27:52.858Z,22.40
2022-12-01T17:30:21.541Z,18.00
2022-12-01T17:32:50.307Z,24.05
2022-12-01T17:35:19.287Z,23.80
2022-12-01T17:37:47.823Z,22.92
2022-12-01T17:40:16.372Z,23.38
2022-12-01T17:42:50.492Z,23.08
2022-12-01T17:45:19.923Z,23.67
2022-12-01T17:47:48.577Z,26.20
2022-12-01T17:50:17.847Z,21.00
2022-12-01T17:52:46.786Z,23.77
2022-12-01T17:55:15.447Z,22.95
2022-12-01T17:57:44.352Z,23.38
2022-12-01T18:00:16.054Z,25.80
2022-12-01T18:02:44.644Z,19.30
2022-12-01T18:05:13.185Z,23.17
2022-12-01T18:07:41.792Z,21.13
2022-12-01T18:10:11.101Z,24.42
2022-12-01T18:12:39.652Z,21.55
2022-12-01T18:15:09.173Z,23.35
2022-12-01T18:17:39.113Z,22.33
2022-12-01T18:20:09.435Z,23.45
2022-12-01T18:22:37.915Z,22.45
2022-12-01T18:25:07.048Z,20.85
2022-12-01T18:27:35.512Z,19.42
2022-12-01T18:30:05.321Z,24.92
2022-12-01T18:32:33.873Z,23.73
2022-12-01T18:35:03.727Z,23.77
2022-12-01T18:37:32.196Z,22.33
2022-12-01T18:40:00.864Z,23.58
2022-12-01T18:42:29.354Z,28.38
2022-12-01T18:44:57.848Z,25.13
2022-12-01T18:47:26.414Z,21.90
2022-12-01T18:49:55.279Z,23.90
2022-12-01T18:52:25.333Z,22.35
2022-12-01T18:54:55.125Z,24.50
2022-12-01T18:57:23.822Z,23.13
2022-12-01T18:59:52.353Z,24.15
2022-12-01T19:02:20.988Z,25.50
2022-12-01T19:04:50.862Z,24.00
2022-12-01T19:07:19.550Z,24.83
2022-12-01T19:09:49.656Z,26.27
2022-12-01T19:12:18.727Z,22.25
2022-12-01T19:14:47.424Z,23.48
2022-12-01T19:17:16.096Z,24.73
2022-12-01T19:19:44.614Z,23.88
2022-12-01T19:22:13.083Z,22.50
2022-12-01T19:24:44.865Z,24.60
2022-12-01T19:27:18.648Z,23.48
2022-12-01T19:29:47.508Z,22.33
2022-12-01T19:32:16.361Z,21.70
2022-12-01T19:34:44.836Z,27.02
2022-12-01T19:37:13.319Z,22.67
2022-12-01T19:39:41.846Z,27.92
2022-12-01T19:42:12.103Z,22.60
2022-12-01T19:44:42.006Z,23.73
2022-12-01T19:47:10.641Z,26.05
2022-12-01T19:49:39.049Z,25.23
2022-12-01T19:52:07.517Z,24.92
2022-12-01T19:54:37.612Z,22.60
2022-12-01T19:57:06.309Z,23.73
2022-12-01T19:59:35.058Z,23.55
2022-12-01T20:02:04.901Z,25.02
2022-12-01T20:04:33.728Z,28.20
2022-12-01T20:07:02.207Z,27.48
2022-12-01T20:09:30.719Z,26.08
2022-12-01T20:11:59.258Z,29.17
2022-12-01T20:14:27.809Z,27.05
2022-12-01T20:16:56.573Z,31.52
2022-12-01T20:19:26.487Z,31.45
2022-12-01T20:21:55.067Z,35.25
2022-12-01T20:24:25.074Z,33.20
2022-12-01T20:26:57.498Z,31.98
2022-12-01T20:29:28.687Z,30.33
2022-12-01T20:31:59.587Z,26.88
2022-12-01T20:34:32.064Z,24.85
2022-12-01T20:37:01.366Z,25.67
2022-12-01T20:39:31.406Z,24.20
2022-12-01T20:42:00.002Z,25.48
2022-12-01T20:44:29.266Z,24.42
2022-12-01T20:46:57.812Z,26.92
2022-12-01T20:49:26.272Z,23.77
2022-12-01T20:51:56.112Z,22.67
2022-12-01T20:54:29.208Z,23.50
2022-12-01T20:56:58.589Z,25.33
2022-12-01T20:59:27.846Z,27.40
2022-12-01T21:01:56.832Z,25.00
2022-12-01T21:04:25.572Z,21.48
2022-12-01T21:06:57.286Z,26.60
2022-12-01T21:09:26.555Z,20.77
2022-12-01T21:12:15.149Z,26.00
2022-12-01T21:14:46.244Z,24.98
2022-12-01T21:17:25.311Z,28.40
2022-12-01T21:20:01.373Z,28.33
2022-12-01T21:22:31.698Z,26.73
2022-12-01T21:25:07.261Z,27.80
2022-12-01T21:27:35.719Z,24.40
2022-12-01T21:30:08.708Z,25.85
2022-12-01T21:32:42.558Z,26.88
2022-12-01T21:35:17.393Z,22.40
2022-12-01T21:37:47.795Z,22.92
2022-12-01T21:40:21.576Z,27.00
2022-12-01T21:42:50.566Z,24.15
2022-12-01T21:45:23.192Z,24.42
2022-12-01T21:47:51.939Z,27.65
2022-12-01T21:50:23.612Z,20.65
2022-12-01T21:52:53.481Z,25.27
2022-12-01T21:55:34.909Z,27.33
2022-12-01T21:58:03.953Z,22.90
2022-12-01T22:00:34.256Z,27.67
2022-12-01T22:03:21.670Z,28.02
2022-12-01T22:06:21.114Z,28.77
2022-12-01T22:08:46.212Z,25.13
2022-12-01T22:11:19.535Z,25.98
2022-12-01T22:13:50.868Z,26.15
2022-12-01T22:16:21.836Z,28.05
2022-12-01T22:18:53.162Z,28.35
2022-12-01T22:21:42.184Z,25.63
2022-12-01T22:24:26.064Z,28.23
2022-12-01T22:27:03.708Z,26.70
2022-12-01T22:29:34.763Z,24.90
2022-12-01T22:32:38.400Z,25.48
2022-12-01T22:35:29.580Z,25.48
2022-12-01T22:38:15.077Z,26.23
2022-12-01T22:40:52.624Z,25.50
2022-12-01T22:43:46.240Z,29.45
2022-12-01T22:46:30.392Z,26.08
2022-12-01T22:49:00.651Z,24.90
2022-12-01T22:54:19.801Z,24.65
2022-12-01T22:56:51.599Z,22.42
2022-12-01T22:59:21.731Z,23.85
2022-12-01T23:04:26.529Z,22.23
2022-12-01T23:07:04.669Z,24.88
2022-12-01T23:09:36.908Z,23.63
2022-12-01T23:12:27.175Z,24.40
2022-12-01T23:15:00.271Z,25.45
2022-12-01T23:17:30.604Z,22.48
2022-12-01T23:20:31.276Z,27.45
2022-12-01T23:23:02.440Z,25.55
2022-12-01T23:25:31.716Z,23.40
2022-12-01T23:28:05.349Z,28.17
2022-12-01T23:30:34.444Z,26.30
2022-12-01T23:33:28.519Z,29.00
2022-12-01T23:35:59.173Z,23.27
2022-12-01T23:38:32.460Z,26.25
2022-12-01T23:41:02.660Z,25.35
2022-12-01T23:43:35.699Z,23.25
2022-12-01T23:46:07.408Z,28.10
2022-12-01T23:48:42.276Z,25.70
2022-12-01T23:51:18.903Z,24.40
2022-12-01T23:53:47.638Z,25.13
2022-12-01T23:56:19.926Z,24.63
2022-12-01T23:58:50.559Z,25.17
